Archival Weather

Snohomish County (Paine Fld)

Everett, Washington (KPAE)

Report from: Monday, October 23, 2023 12:53 PM PDT
Current time: Monday, June 17, 2024 1:09 AM PDT

Current weather – Weather history – Daily summaries
Weather forecast

Temperature11.1°C (52.0°F)
Dew point8.3°C (46.9°F)
Winds Calm
Visibility10 mi. (16.1 km)
Clouds Scattered clouds 900 ft. (274 m)
Ceiling: Overcast 1,800 ft. (549 m)
Altimeter30.02 in.Hg (1017 mB)
PrecipitiationTrace
Precip. events Rain ended 7:24 PM
Relative humidity83 %
Density altitude-422 ft. (-129 m)
Sea-level pressure101.7 kPa (1017 mB, 30.02 in.Hg)
Remarks Automated weather observing station with precipitation discriminator
Flight conditions Marginal Visual Meteorological Conditions
Raw dataKPAE 231953Z 00000KT 10SM SCT009 OVC018 11/08 A3002 RMK AO2 RAE24 SLP166 P0000 T01110083
An error has occurred. This application may no longer respond until reloaded. Reload 🗙